sensor_id;sensor_type;location;lat;lon;timestamp;temperature;humidity
52321;DHT22;38261;54.090;13.382;2023-04-28T00:00:11;4.30;99.90
52321;DHT22;38261;54.090;13.382;2023-04-28T00:01:33;4.20;99.90
52321;DHT22;38261;54.090;13.382;2023-04-28T00:02:56;4.20;99.90
52321;DHT22;38261;54.090;13.382;2023-04-28T00:04:18;4.20;99.90
52321;DHT22;38261;54.090;13.382;2023-04-28T00:05:41;4.20;99.90
52321;DHT22;38261;54.090;13.382;2023-04-28T00:07:03;4.20;99.90
52321;DHT22;38261;54.090;13.382;2023-04-28T00:08:25;4.20;99.90
52321;DHT22;38261;54.090;13.382;2023-04-28T00:09:48;4.10;99.90
52321;DHT22;38261;54.090;13.382;2023-04-28T00:11:10;4.20;99.90
52321;DHT22;38261;54.090;13.382;2023-04-28T00:12:32;4.20;99.90
52321;DHT22;38261;54.090;13.382;2023-04-28T00:13:54;4.10;99.90
52321;DHT22;38261;54.090;13.382;2023-04-28T00:15:17;4.20;99.90
52321;DHT22;38261;54.090;13.382;2023-04-28T00:16:39;4.20;99.90
52321;DHT22;38261;54.090;13.382;2023-04-28T00:18:01;4.20;99.90
52321;DHT22;38261;54.090;13.382;2023-04-28T00:19:23;4.20;99.90
52321;DHT22;38261;54.090;13.382;2023-04-28T00:20:46;4.20;99.90
52321;DHT22;38261;54.090;13.382;2023-04-28T00:22:08;4.30;99.90
52321;DHT22;38261;54.090;13.382;2023-04-28T00:23:30;4.20;99.90
52321;DHT22;38261;54.090;13.382;2023-04-28T00:24:52;4.30;99.90
52321;DHT22;38261;54.090;13.382;2023-04-28T00:26:14;4.20;99.90
52321;DHT22;38261;54.090;13.382;2023-04-28T00:27:36;4.20;99.90
52321;DHT22;38261;54.090;13.382;2023-04-28T00:28:58;4.30;99.90
52321;DHT22;38261;54.090;13.382;2023-04-28T00:30:21;4.30;99.90
52321;DHT22;38261;54.090;13.382;2023-04-28T00:31:44;4.30;99.90
52321;DHT22;38261;54.090;13.382;2023-04-28T00:33:06;4.30;99.90
52321;DHT22;38261;54.090;13.382;2023-04-28T00:34:31;4.40;99.90
52321;DHT22;38261;54.090;13.382;2023-04-28T00:36:00;4.40;99.90
52321;DHT22;38261;54.090;13.382;2023-04-28T00:37:22;4.40;99.90
52321;DHT22;38261;54.090;13.382;2023-04-28T00:38:44;4.40;99.90
52321;DHT22;38261;54.090;13.382;2023-04-28T00:40:07;4.40;99.90
52321;DHT22;38261;54.090;13.382;2023-04-28T00:41:29;4.40;99.90
52321;DHT22;38261;54.090;13.382;2023-04-28T00:42:51;4.40;99.90
52321;DHT22;38261;54.090;13.382;2023-04-28T00:44:13;4.40;99.90
52321;DHT22;38261;54.090;13.382;2023-04-28T00:45:36;4.40;99.90
52321;DHT22;38261;54.090;13.382;2023-04-28T00:46:58;4.40;99.90
52321;DHT22;38261;54.090;13.382;2023-04-28T00:48:21;4.40;99.90
52321;DHT22;38261;54.090;13.382;2023-04-28T00:49:44;4.40;99.90
52321;DHT22;38261;54.090;13.382;2023-04-28T00:51:08;4.40;99.90
52321;DHT22;38261;54.090;13.382;2023-04-28T00:52:31;4.40;99.90
52321;DHT22;38261;54.090;13.382;2023-04-28T00:53:53;4.40;99.90
52321;DHT22;38261;54.090;13.382;2023-04-28T00:55:15;4.40;99.90
52321;DHT22;38261;54.090;13.382;2023-04-28T00:56:37;4.30;99.90
52321;DHT22;38261;54.090;13.382;2023-04-28T00:58:01;4.30;99.90
52321;DHT22;38261;54.090;13.382;2023-04-28T00:59:23;4.30;99.90
52321;DHT22;38261;54.090;13.382;2023-04-28T01:00:45;4.30;99.90
52321;DHT22;38261;54.090;13.382;2023-04-28T01:02:07;4.30;99.90
52321;DHT22;38261;54.090;13.382;2023-04-28T01:03:32;4.30;99.90
52321;DHT22;38261;54.090;13.382;2023-04-28T01:04:56;4.30;99.90
52321;DHT22;38261;54.090;13.382;2023-04-28T01:06:19;4.30;99.90
52321;DHT22;38261;54.090;13.382;2023-04-28T01:07:41;4.30;99.90
52321;DHT22;38261;54.090;13.382;2023-04-28T01:09:03;4.30;99.90
52321;DHT22;38261;54.090;13.382;2023-04-28T01:10:27;4.30;99.90
52321;DHT22;38261;54.090;13.382;2023-04-28T01:11:49;4.30;99.90
52321;DHT22;38261;54.090;13.382;2023-04-28T01:13:11;4.30;99.90
52321;DHT22;38261;54.090;13.382;2023-04-28T01:14:33;4.30;99.90
52321;DHT22;38261;54.090;13.382;2023-04-28T01:15:55;4.30;99.90
52321;DHT22;38261;54.090;13.382;2023-04-28T01:17:18;4.30;99.90
52321;DHT22;38261;54.090;13.382;2023-04-28T01:18:46;4.30;99.90
52321;DHT22;38261;54.090;13.382;2023-04-28T01:20:09;4.30;99.90
52321;DHT22;38261;54.090;13.382;2023-04-28T01:21:31;4.20;99.90
52321;DHT22;38261;54.090;13.382;2023-04-28T01:22:53;4.20;99.90
52321;DHT22;38261;54.090;13.382;2023-04-28T01:24:16;4.30;99.90
52321;DHT22;38261;54.090;13.382;2023-04-28T01:25:39;4.20;99.90
52321;DHT22;38261;54.090;13.382;2023-04-28T01:27:02;4.20;99.90
52321;DHT22;38261;54.090;13.382;2023-04-28T01:28:24;4.20;99.90
52321;DHT22;38261;54.090;13.382;2023-04-28T01:29:46;4.30;99.90
52321;DHT22;38261;54.090;13.382;2023-04-28T01:31:08;4.20;99.90
52321;DHT22;38261;54.090;13.382;2023-04-28T01:32:30;4.30;99.90
52321;DHT22;38261;54.090;13.382;2023-04-28T01:33:52;4.30;99.90
52321;DHT22;38261;54.090;13.382;2023-04-28T01:35:14;4.30;99.90
52321;DHT22;38261;54.090;13.382;2023-04-28T01:36:37;4.30;99.90
52321;DHT22;38261;54.090;13.382;2023-04-28T01:37:59;4.30;99.90
52321;DHT22;38261;54.090;13.382;2023-04-28T01:39:21;4.30;99.90
52321;DHT22;38261;54.090;13.382;2023-04-28T01:40:43;4.20;99.90
52321;DHT22;38261;54.090;13.382;2023-04-28T01:42:05;4.30;99.90
52321;DHT22;38261;54.090;13.382;2023-04-28T01:43:28;4.30;99.90
52321;DHT22;38261;54.090;13.382;2023-04-28T01:44:50;4.30;99.90
52321;DHT22;38261;54.090;13.382;2023-04-28T01:46:12;4.30;99.90
52321;DHT22;38261;54.090;13.382;2023-04-28T01:47:34;4.30;99.90
52321;DHT22;38261;54.090;13.382;2023-04-28T01:48:56;4.30;99.90
52321;DHT22;38261;54.090;13.382;2023-04-28T01:50:19;4.40;99.90
52321;DHT22;38261;54.090;13.382;2023-04-28T01:51:41;4.40;99.90
52321;DHT22;38261;54.090;13.382;2023-04-28T01:53:04;4.40;99.90
52321;DHT22;38261;54.090;13.382;2023-04-28T01:54:26;4.40;99.90
52321;DHT22;38261;54.090;13.382;2023-04-28T01:55:48;4.50;99.90
52321;DHT22;38261;54.090;13.382;2023-04-28T01:57:10;4.50;99.90
52321;DHT22;38261;54.090;13.382;2023-04-28T01:58:32;4.50;99.90
52321;DHT22;38261;54.090;13.382;2023-04-28T01:59:55;4.60;99.90
52321;DHT22;38261;54.090;13.382;2023-04-28T02:01:17;4.60;99.90
52321;DHT22;38261;54.090;13.382;2023-04-28T02:02:40;4.60;99.90
52321;DHT22;38261;54.090;13.382;2023-04-28T02:04:02;4.60;99.90
52321;DHT22;38261;54.090;13.382;2023-04-28T02:05:25;4.70;99.90
52321;DHT22;38261;54.090;13.382;2023-04-28T02:06:47;4.70;99.90
52321;DHT22;38261;54.090;13.382;2023-04-28T02:08:09;4.70;99.90
52321;DHT22;38261;54.090;13.382;2023-04-28T02:09:32;4.70;99.90
52321;DHT22;38261;54.090;13.382;2023-04-28T02:10:54;4.80;99.90
52321;DHT22;38261;54.090;13.382;2023-04-28T02:12:18;4.80;99.90
52321;DHT22;38261;54.090;13.382;2023-04-28T02:13:40;4.80;99.90
52321;DHT22;38261;54.090;13.382;2023-04-28T02:15:02;4.80;99.90
52321;DHT22;38261;54.090;13.382;2023-04-28T02:16:24;4.80;99.90
52321;DHT22;38261;54.090;13.382;2023-04-28T02:17:47;4.80;99.90
52321;DHT22;38261;54.090;13.382;2023-04-28T02:19:09;4.90;99.90
52321;DHT22;38261;54.090;13.382;2023-04-28T02:20:31;4.90;99.90
52321;DHT22;38261;54.090;13.382;2023-04-28T02:21:54;4.90;99.90
52321;DHT22;38261;54.090;13.382;2023-04-28T02:23:16;4.90;99.90
52321;DHT22;38261;54.090;13.382;2023-04-28T02:24:38;4.90;99.90
52321;DHT22;38261;54.090;13.382;2023-04-28T02:26:01;5.00;99.90
52321;DHT22;38261;54.090;13.382;2023-04-28T02:27:24;4.90;99.90
52321;DHT22;38261;54.090;13.382;2023-04-28T02:28:46;5.00;99.90
52321;DHT22;38261;54.090;13.382;2023-04-28T02:30:10;5.00;99.90
52321;DHT22;38261;54.090;13.382;2023-04-28T02:31:32;5.10;99.90
52321;DHT22;38261;54.090;13.382;2023-04-28T02:32:54;5.10;99.90
52321;DHT22;38261;54.090;13.382;2023-04-28T02:34:16;5.10;99.90
52321;DHT22;38261;54.090;13.382;2023-04-28T02:35:39;5.10;99.90
52321;DHT22;38261;54.090;13.382;2023-04-28T02:37:01;5.10;99.90
52321;DHT22;38261;54.090;13.382;2023-04-28T02:38:23;5.10;99.90
52321;DHT22;38261;54.090;13.382;2023-04-28T02:39:45;5.20;99.90
52321;DHT22;38261;54.090;13.382;2023-04-28T02:41:08;5.20;99.90
52321;DHT22;38261;54.090;13.382;2023-04-28T02:42:30;5.20;99.90
52321;DHT22;38261;54.090;13.382;2023-04-28T02:43:52;5.20;99.90
52321;DHT22;38261;54.090;13.382;2023-04-28T02:45:14;5.20;99.90
52321;DHT22;38261;54.090;13.382;2023-04-28T02:46:36;5.20;99.90
52321;DHT22;38261;54.090;13.382;2023-04-28T02:47:58;5.20;99.90
52321;DHT22;38261;54.090;13.382;2023-04-28T02:49:24;5.20;99.90
52321;DHT22;38261;54.090;13.382;2023-04-28T02:50:46;5.20;99.90
52321;DHT22;38261;54.090;13.382;2023-04-28T02:52:08;5.20;99.90
52321;DHT22;38261;54.090;13.382;2023-04-28T02:53:30;5.20;99.90
52321;DHT22;38261;54.090;13.382;2023-04-28T02:54:52;5.20;99.90
52321;DHT22;38261;54.090;13.382;2023-04-28T02:56:18;5.20;99.90
52321;DHT22;38261;54.090;13.382;2023-04-28T02:57:40;5.30;99.90
52321;DHT22;38261;54.090;13.382;2023-04-28T02:59:02;5.30;99.90
52321;DHT22;38261;54.090;13.382;2023-04-28T03:00:24;5.30;99.90
52321;DHT22;38261;54.090;13.382;2023-04-28T03:01:47;5.30;99.90
52321;DHT22;38261;54.090;13.382;2023-04-28T03:03:09;5.20;99.90
52321;DHT22;38261;54.090;13.382;2023-04-28T03:04:32;5.20;99.90
52321;DHT22;38261;54.090;13.382;2023-04-28T03:05:54;5.20;99.90
52321;DHT22;38261;54.090;13.382;2023-04-28T03:07:17;5.20;99.90
52321;DHT22;38261;54.090;13.382;2023-04-28T03:08:40;5.10;99.90
52321;DHT22;38261;54.090;13.382;2023-04-28T03:10:02;5.00;99.90
52321;DHT22;38261;54.090;13.382;2023-04-28T03:11:24;5.00;99.90
52321;DHT22;38261;54.090;13.382;2023-04-28T03:12:46;4.90;99.90
52321;DHT22;38261;54.090;13.382;2023-04-28T03:14:08;4.90;99.90
52321;DHT22;38261;54.090;13.382;2023-04-28T03:15:30;4.80;99.90
52321;DHT22;38261;54.090;13.382;2023-04-28T03:16:52;4.80;99.90
52321;DHT22;38261;54.090;13.382;2023-04-28T03:18:15;4.80;99.90
52321;DHT22;38261;54.090;13.382;2023-04-28T03:19:37;4.80;99.90
52321;DHT22;38261;54.090;13.382;2023-04-28T03:20:59;4.80;99.90
52321;DHT22;38261;54.090;13.382;2023-04-28T03:22:21;4.70;99.90
52321;DHT22;38261;54.090;13.382;2023-04-28T03:23:43;4.70;99.90
52321;DHT22;38261;54.090;13.382;2023-04-28T03:25:05;4.70;99.90
52321;DHT22;38261;54.090;13.382;2023-04-28T03:26:28;4.70;99.90
52321;DHT22;38261;54.090;13.382;2023-04-28T03:27:50;4.70;99.90
52321;DHT22;38261;54.090;13.382;2023-04-28T03:29:12;4.60;99.90
52321;DHT22;38261;54.090;13.382;2023-04-28T03:30:34;4.60;99.90
52321;DHT22;38261;54.090;13.382;2023-04-28T03:31:57;4.60;99.90
52321;DHT22;38261;54.090;13.382;2023-04-28T03:33:19;4.60;99.90
52321;DHT22;38261;54.090;13.382;2023-04-28T03:34:41;4.60;99.90
52321;DHT22;38261;54.090;13.382;2023-04-28T03:36:03;4.50;99.90
52321;DHT22;38261;54.090;13.382;2023-04-28T03:37:25;4.50;99.90
52321;DHT22;38261;54.090;13.382;2023-04-28T03:38:48;4.50;99.90
52321;DHT22;38261;54.090;13.382;2023-04-28T03:40:10;4.50;99.90
52321;DHT22;38261;54.090;13.382;2023-04-28T03:41:32;4.50;99.90
52321;DHT22;38261;54.090;13.382;2023-04-28T03:42:54;4.50;99.90
52321;DHT22;38261;54.090;13.382;2023-04-28T03:44:16;4.40;99.90
52321;DHT22;38261;54.090;13.382;2023-04-28T03:45:39;4.40;99.90
52321;DHT22;38261;54.090;13.382;2023-04-28T03:47:02;4.40;99.90
52321;DHT22;38261;54.090;13.382;2023-04-28T03:48:24;4.40;99.90
52321;DHT22;38261;54.090;13.382;2023-04-28T03:49:46;4.30;99.90
52321;DHT22;38261;54.090;13.382;2023-04-28T03:51:08;4.30;99.90
52321;DHT22;38261;54.090;13.382;2023-04-28T03:52:30;4.30;99.90
52321;DHT22;38261;54.090;13.382;2023-04-28T03:53:53;4.30;99.90
52321;DHT22;38261;54.090;13.382;2023-04-28T03:55:15;4.30;99.90
52321;DHT22;38261;54.090;13.382;2023-04-28T03:56:37;4.30;99.90
52321;DHT22;38261;54.090;13.382;2023-04-28T03:57:59;4.40;99.90
52321;DHT22;38261;54.090;13.382;2023-04-28T03:59:22;4.40;99.90
52321;DHT22;38261;54.090;13.382;2023-04-28T04:00:44;4.40;99.90
52321;DHT22;38261;54.090;13.382;2023-04-28T04:02:07;4.50;99.90
52321;DHT22;38261;54.090;13.382;2023-04-28T04:03:29;4.50;99.90
52321;DHT22;38261;54.090;13.382;2023-04-28T04:04:51;4.50;99.90
52321;DHT22;38261;54.090;13.382;2023-04-28T04:06:14;4.60;99.90
52321;DHT22;38261;54.090;13.382;2023-04-28T04:07:37;4.60;99.90
52321;DHT22;38261;54.090;13.382;2023-04-28T04:08:59;4.60;99.90
52321;DHT22;38261;54.090;13.382;2023-04-28T04:10:21;4.70;99.90
52321;DHT22;38261;54.090;13.382;2023-04-28T04:11:43;4.80;99.90
52321;DHT22;38261;54.090;13.382;2023-04-28T04:13:05;4.80;99.90
52321;DHT22;38261;54.090;13.382;2023-04-28T04:14:27;4.90;99.90
52321;DHT22;38261;54.090;13.382;2023-04-28T04:15:50;5.00;99.90
52321;DHT22;38261;54.090;13.382;2023-04-28T04:17:13;5.00;99.90
52321;DHT22;38261;54.090;13.382;2023-04-28T04:18:35;5.10;99.90
52321;DHT22;38261;54.090;13.382;2023-04-28T04:19:57;5.20;99.90
52321;DHT22;38261;54.090;13.382;2023-04-28T04:21:19;5.40;99.90
52321;DHT22;38261;54.090;13.382;2023-04-28T04:22:42;5.90;99.90
52321;DHT22;38261;54.090;13.382;2023-04-28T04:24:04;6.50;99.90
52321;DHT22;38261;54.090;13.382;2023-04-28T04:25:26;7.30;99.90
52321;DHT22;38261;54.090;13.382;2023-04-28T04:26:49;7.90;99.90
52321;DHT22;38261;54.090;13.382;2023-04-28T04:28:11;8.60;99.90
52321;DHT22;38261;54.090;13.382;2023-04-28T04:29:33;9.20;99.90
52321;DHT22;38261;54.090;13.382;2023-04-28T04:30:55;9.80;99.90
52321;DHT22;38261;54.090;13.382;2023-04-28T04:32:17;10.30;99.90
52321;DHT22;38261;54.090;13.382;2023-04-28T04:33:39;10.80;99.90
52321;DHT22;38261;54.090;13.382;2023-04-28T04:35:02;11.30;99.90
52321;DHT22;38261;54.090;13.382;2023-04-28T04:36:24;11.80;99.90
52321;DHT22;38261;54.090;13.382;2023-04-28T04:37:46;12.20;99.90
52321;DHT22;38261;54.090;13.382;2023-04-28T04:39:08;12.60;99.90
52321;DHT22;38261;54.090;13.382;2023-04-28T04:40:31;13.00;99.90
52321;DHT22;38261;54.090;13.382;2023-04-28T04:41:53;13.40;99.90
52321;DHT22;38261;54.090;13.382;2023-04-28T04:43:15;13.80;99.90
52321;DHT22;38261;54.090;13.382;2023-04-28T04:44:37;14.20;99.90
52321;DHT22;38261;54.090;13.382;2023-04-28T04:45:59;14.50;99.90
52321;DHT22;38261;54.090;13.382;2023-04-28T04:47:21;14.80;99.90
52321;DHT22;38261;54.090;13.382;2023-04-28T04:48:44;15.00;99.90
52321;DHT22;38261;54.090;13.382;2023-04-28T04:50:07;15.10;99.90
52321;DHT22;38261;54.090;13.382;2023-04-28T04:51:30;15.20;99.90
52321;DHT22;38261;54.090;13.382;2023-04-28T04:52:53;15.50;99.90
52321;DHT22;38261;54.090;13.382;2023-04-28T04:54:17;15.70;99.90
52321;DHT22;38261;54.090;13.382;2023-04-28T04:55:39;15.90;99.90
52321;DHT22;38261;54.090;13.382;2023-04-28T04:57:01;15.90;99.90
52321;DHT22;38261;54.090;13.382;2023-04-28T04:58:24;16.20;99.90
52321;DHT22;38261;54.090;13.382;2023-04-28T04:59:46;16.40;99.90
52321;DHT22;38261;54.090;13.382;2023-04-28T05:01:08;16.70;99.90
52321;DHT22;38261;54.090;13.382;2023-04-28T05:02:31;16.80;99.90
52321;DHT22;38261;54.090;13.382;2023-04-28T05:03:54;16.90;99.90
52321;DHT22;38261;54.090;13.382;2023-04-28T05:05:17;17.10;99.90
52321;DHT22;38261;54.090;13.382;2023-04-28T05:06:43;17.00;99.90
52321;DHT22;38261;54.090;13.382;2023-04-28T05:08:05;16.70;99.90
52321;DHT22;38261;54.090;13.382;2023-04-28T05:09:27;16.60;99.90
52321;DHT22;38261;54.090;13.382;2023-04-28T05:10:51;16.60;99.90
52321;DHT22;38261;54.090;13.382;2023-04-28T05:12:13;16.70;99.90
52321;DHT22;38261;54.090;13.382;2023-04-28T05:13:35;16.50;99.90
52321;DHT22;38261;54.090;13.382;2023-04-28T05:14:57;16.00;99.90
52321;DHT22;38261;54.090;13.382;2023-04-28T05:16:19;15.30;99.90
52321;DHT22;38261;54.090;13.382;2023-04-28T05:17:42;14.60;99.90
52321;DHT22;38261;54.090;13.382;2023-04-28T05:19:04;14.00;99.90
52321;DHT22;38261;54.090;13.382;2023-04-28T05:20:26;13.50;99.90
52321;DHT22;38261;54.090;13.382;2023-04-28T05:21:49;13.10;99.90
52321;DHT22;38261;54.090;13.382;2023-04-28T05:23:13;12.90;99.90
52321;DHT22;38261;54.090;13.382;2023-04-28T05:24:35;13.00;99.90
52321;DHT22;38261;54.090;13.382;2023-04-28T05:25:58;13.20;99.90
52321;DHT22;38261;54.090;13.382;2023-04-28T05:27:20;13.60;99.90
52321;DHT22;38261;54.090;13.382;2023-04-28T05:28:42;14.30;99.90
52321;DHT22;38261;54.090;13.382;2023-04-28T05:30:08;15.00;99.90
52321;DHT22;38261;54.090;13.382;2023-04-28T05:31:31;15.60;99.90
52321;DHT22;38261;54.090;13.382;2023-04-28T05:32:53;16.20;99.90
52321;DHT22;38261;54.090;13.382;2023-04-28T05:34:15;16.70;99.90
52321;DHT22;38261;54.090;13.382;2023-04-28T05:35:38;17.20;99.90
52321;DHT22;38261;54.090;13.382;2023-04-28T05:37:00;17.60;99.90
52321;DHT22;38261;54.090;13.382;2023-04-28T05:38:22;17.90;99.90
52321;DHT22;38261;54.090;13.382;2023-04-28T05:39:44;18.20;99.90
52321;DHT22;38261;54.090;13.382;2023-04-28T05:41:07;18.30;99.90
52321;DHT22;38261;54.090;13.382;2023-04-28T05:42:29;18.50;99.90
52321;DHT22;38261;54.090;13.382;2023-04-28T05:43:51;18.60;99.90
52321;DHT22;38261;54.090;13.382;2023-04-28T05:45:13;18.50;99.90
52321;DHT22;38261;54.090;13.382;2023-04-28T05:46:36;18.40;99.90
52321;DHT22;38261;54.090;13.382;2023-04-28T05:47:58;18.30;99.90
52321;DHT22;38261;54.090;13.382;2023-04-28T05:49:20;18.20;99.90
52321;DHT22;38261;54.090;13.382;2023-04-28T05:50:42;18.20;99.90
52321;DHT22;38261;54.090;13.382;2023-04-28T05:52:04;18.10;99.90
52321;DHT22;38261;54.090;13.382;2023-04-28T05:53:29;18.00;99.90
52321;DHT22;38261;54.090;13.382;2023-04-28T05:54:55;17.80;99.90
52321;DHT22;38261;54.090;13.382;2023-04-28T05:56:19;17.60;99.90
52321;DHT22;38261;54.090;13.382;2023-04-28T05:57:41;17.30;99.90
52321;DHT22;38261;54.090;13.382;2023-04-28T05:59:14;17.10;99.90
52321;DHT22;38261;54.090;13.382;2023-04-28T06:00:36;16.80;99.90
52321;DHT22;38261;54.090;13.382;2023-04-28T06:01:59;16.50;99.90
52321;DHT22;38261;54.090;13.382;2023-04-28T06:03:21;16.30;99.90
52321;DHT22;38261;54.090;13.382;2023-04-28T06:04:43;15.90;99.90
52321;DHT22;38261;54.090;13.382;2023-04-28T06:06:07;15.60;99.90
52321;DHT22;38261;54.090;13.382;2023-04-28T06:07:31;15.40;99.90
52321;DHT22;38261;54.090;13.382;2023-04-28T06:08:53;15.10;99.90
52321;DHT22;38261;54.090;13.382;2023-04-28T06:10:15;14.80;99.90
52321;DHT22;38261;54.090;13.382;2023-04-28T06:11:38;14.60;99.90
52321;DHT22;38261;54.090;13.382;2023-04-28T06:13:00;14.40;99.90
52321;DHT22;38261;54.090;13.382;2023-04-28T06:14:23;14.30;99.90
52321;DHT22;38261;54.090;13.382;2023-04-28T06:15:45;14.10;99.90
52321;DHT22;38261;54.090;13.382;2023-04-28T06:17:08;14.00;99.90
52321;DHT22;38261;54.090;13.382;2023-04-28T06:18:30;13.90;99.90
52321;DHT22;38261;54.090;13.382;2023-04-28T06:19:55;13.80;99.90
52321;DHT22;38261;54.090;13.382;2023-04-28T06:21:19;13.70;99.90
52321;DHT22;38261;54.090;13.382;2023-04-28T06:22:42;13.70;99.90
52321;DHT22;38261;54.090;13.382;2023-04-28T06:24:04;13.70;99.90
52321;DHT22;38261;54.090;13.382;2023-04-28T06:25:26;13.70;99.90
52321;DHT22;38261;54.090;13.382;2023-04-28T06:26:49;13.70;99.90
52321;DHT22;38261;54.090;13.382;2023-04-28T06:28:11;13.70;99.90
52321;DHT22;38261;54.090;13.382;2023-04-28T06:29:34;13.70;99.90
52321;DHT22;38261;54.090;13.382;2023-04-28T06:30:56;13.80;99.90
52321;DHT22;38261;54.090;13.382;2023-04-28T06:32:18;13.90;99.90
52321;DHT22;38261;54.090;13.382;2023-04-28T06:33:40;13.90;99.90
52321;DHT22;38261;54.090;13.382;2023-04-28T06:35:02;13.90;99.90
52321;DHT22;38261;54.090;13.382;2023-04-28T06:36:25;14.00;99.90
52321;DHT22;38261;54.090;13.382;2023-04-28T06:37:49;14.10;99.90
52321;DHT22;38261;54.090;13.382;2023-04-28T06:39:11;14.00;99.90
52321;DHT22;38261;54.090;13.382;2023-04-28T06:40:34;13.90;99.90
52321;DHT22;38261;54.090;13.382;2023-04-28T06:41:56;13.80;99.90
52321;DHT22;38261;54.090;13.382;2023-04-28T06:43:18;13.80;99.90
52321;DHT22;38261;54.090;13.382;2023-04-28T06:44:41;13.90;99.90
52321;DHT22;38261;54.090;13.382;2023-04-28T06:46:03;14.00;99.90
52321;DHT22;38261;54.090;13.382;2023-04-28T06:47:25;13.90;99.90
52321;DHT22;38261;54.090;13.382;2023-04-28T06:48:47;13.80;99.90
52321;DHT22;38261;54.090;13.382;2023-04-28T06:50:10;13.90;99.90
52321;DHT22;38261;54.090;13.382;2023-04-28T06:51:32;13.80;99.90
52321;DHT22;38261;54.090;13.382;2023-04-28T06:52:54;13.70;99.90
52321;DHT22;38261;54.090;13.382;2023-04-28T06:54:16;13.70;99.90
52321;DHT22;38261;54.090;13.382;2023-04-28T06:55:39;13.70;99.90
52321;DHT22;38261;54.090;13.382;2023-04-28T06:57:01;13.70;99.90
52321;DHT22;38261;54.090;13.382;2023-04-28T06:58:23;13.70;99.90
52321;DHT22;38261;54.090;13.382;2023-04-28T06:59:48;13.70;99.90
52321;DHT22;38261;54.090;13.382;2023-04-28T07:01:13;13.70;99.90
52321;DHT22;38261;54.090;13.382;2023-04-28T07:02:37;13.70;99.90
52321;DHT22;38261;54.090;13.382;2023-04-28T07:04:04;13.80;99.90
52321;DHT22;38261;54.090;13.382;2023-04-28T07:05:27;13.80;99.90
52321;DHT22;38261;54.090;13.382;2023-04-28T07:06:53;13.90;99.90
52321;DHT22;38261;54.090;13.382;2023-04-28T07:08:15;14.00;99.90
52321;DHT22;38261;54.090;13.382;2023-04-28T07:09:38;14.10;99.90
52321;DHT22;38261;54.090;13.382;2023-04-28T07:11:01;14.00;99.90
52321;DHT22;38261;54.090;13.382;2023-04-28T07:12:27;13.90;99.90
52321;DHT22;38261;54.090;13.382;2023-04-28T07:13:49;13.80;99.90
52321;DHT22;38261;54.090;13.382;2023-04-28T07:15:12;13.70;99.90
52321;DHT22;38261;54.090;13.382;2023-04-28T07:16:35;13.60;99.90
52321;DHT22;38261;54.090;13.382;2023-04-28T07:17:58;13.60;99.90
52321;DHT22;38261;54.090;13.382;2023-04-28T07:19:20;13.60;99.90
52321;DHT22;38261;54.090;13.382;2023-04-28T07:20:43;13.60;99.90
52321;DHT22;38261;54.090;13.382;2023-04-28T07:22:07;13.70;99.90
52321;DHT22;38261;54.090;13.382;2023-04-28T07:23:29;13.70;99.90
52321;DHT22;38261;54.090;13.382;2023-04-28T07:24:51;13.70;99.90
52321;DHT22;38261;54.090;13.382;2023-04-28T07:26:13;13.70;99.90
52321;DHT22;38261;54.090;13.382;2023-04-28T07:27:37;13.80;99.90
52321;DHT22;38261;54.090;13.382;2023-04-28T07:28:59;13.80;99.90
52321;DHT22;38261;54.090;13.382;2023-04-28T07:30:21;13.70;99.90
52321;DHT22;38261;54.090;13.382;2023-04-28T07:31:49;13.60;99.90
52321;DHT22;38261;54.090;13.382;2023-04-28T07:33:11;13.60;99.90
52321;DHT22;38261;54.090;13.382;2023-04-28T07:34:34;13.50;99.90
52321;DHT22;38261;54.090;13.382;2023-04-28T07:35:56;13.50;99.90
52321;DHT22;38261;54.090;13.382;2023-04-28T07:37:18;13.50;99.90
52321;DHT22;38261;54.090;13.382;2023-04-28T07:38:41;13.40;99.90
52321;DHT22;38261;54.090;13.382;2023-04-28T07:40:04;13.50;99.90
52321;DHT22;38261;54.090;13.382;2023-04-28T07:41:27;13.50;99.90
52321;DHT22;38261;54.090;13.382;2023-04-28T07:42:49;13.40;99.90
52321;DHT22;38261;54.090;13.382;2023-04-28T07:44:12;13.40;99.90
52321;DHT22;38261;54.090;13.382;2023-04-28T07:45:38;13.50;99.90
52321;DHT22;38261;54.090;13.382;2023-04-28T07:47:01;13.50;99.90
52321;DHT22;38261;54.090;13.382;2023-04-28T07:48:23;13.60;99.90
52321;DHT22;38261;54.090;13.382;2023-04-28T07:49:46;13.60;99.90
52321;DHT22;38261;54.090;13.382;2023-04-28T07:51:08;13.70;99.90
52321;DHT22;38261;54.090;13.382;2023-04-28T07:52:30;13.70;99.90
52321;DHT22;38261;54.090;13.382;2023-04-28T07:53:53;13.80;99.90
52321;DHT22;38261;54.090;13.382;2023-04-28T07:55:15;13.80;99.90
52321;DHT22;38261;54.090;13.382;2023-04-28T07:56:37;13.90;99.90
52321;DHT22;38261;54.090;13.382;2023-04-28T07:57:59;13.90;99.90
52321;DHT22;38261;54.090;13.382;2023-04-28T07:59:22;13.90;99.90
52321;DHT22;38261;54.090;13.382;2023-04-28T08:00:44;13.90;99.90
52321;DHT22;38261;54.090;13.382;2023-04-28T08:02:07;13.90;99.90
52321;DHT22;38261;54.090;13.382;2023-04-28T08:03:29;13.90;99.90
52321;DHT22;38261;54.090;13.382;2023-04-28T08:04:52;13.80;99.90
52321;DHT22;38261;54.090;13.382;2023-04-28T08:06:14;13.80;99.90
52321;DHT22;38261;54.090;13.382;2023-04-28T08:07:36;13.80;99.90
52321;DHT22;38261;54.090;13.382;2023-04-28T08:08:59;13.80;99.90
52321;DHT22;38261;54.090;13.382;2023-04-28T08:10:23;13.90;99.90
52321;DHT22;38261;54.090;13.382;2023-04-28T08:11:47;13.90;99.90
52321;DHT22;38261;54.090;13.382;2023-04-28T08:13:09;14.00;99.90
52321;DHT22;38261;54.090;13.382;2023-04-28T08:14:31;14.00;99.90
52321;DHT22;38261;54.090;13.382;2023-04-28T08:15:54;14.10;99.90
52321;DHT22;38261;54.090;13.382;2023-04-28T08:17:21;14.20;99.90
52321;DHT22;38261;54.090;13.382;2023-04-28T08:18:43;14.30;99.90
52321;DHT22;38261;54.090;13.382;2023-04-28T08:20:07;14.30;99.90
52321;DHT22;38261;54.090;13.382;2023-04-28T08:21:29;14.30;99.90
52321;DHT22;38261;54.090;13.382;2023-04-28T08:22:51;14.20;99.90
52321;DHT22;38261;54.090;13.382;2023-04-28T08:24:13;14.10;99.90
52321;DHT22;38261;54.090;13.382;2023-04-28T08:25:36;14.00;99.90
52321;DHT22;38261;54.090;13.382;2023-04-28T08:27:02;13.90;99.90
52321;DHT22;38261;54.090;13.382;2023-04-28T08:28:25;13.80;99.90
52321;DHT22;38261;54.090;13.382;2023-04-28T08:29:48;13.70;99.90
52321;DHT22;38261;54.090;13.382;2023-04-28T08:31:10;13.60;99.90
52321;DHT22;38261;54.090;13.382;2023-04-28T08:32:32;13.50;99.90
52321;DHT22;38261;54.090;13.382;2023-04-28T08:33:55;13.50;99.90
52321;DHT22;38261;54.090;13.382;2023-04-28T08:35:17;13.40;99.90
52321;DHT22;38261;54.090;13.382;2023-04-28T08:36:40;13.40;99.90
52321;DHT22;38261;54.090;13.382;2023-04-28T08:38:02;13.40;99.90